sensor_id;sensor_type;location;lat;lon;timestamp;P1;durP1;ratioP1;P2;durP2;ratioP2
62894;SDS011;49204;44.916;37.998;2022-12-16T00:00:25;26.57;;;9.68;;
62894;SDS011;49204;44.916;37.998;2022-12-16T00:02:54;31.23;;;10.95;;
62894;SDS011;49204;44.916;37.998;2022-12-16T00:05:24;29.05;;;12.47;;
62894;SDS011;49204;44.916;37.998;2022-12-16T00:07:55;37.93;;;12.60;;
62894;SDS011;49204;44.916;37.998;2022-12-16T00:10:23;30.00;;;12.55;;
62894;SDS011;49204;44.916;37.998;2022-12-16T00:12:52;27.40;;;12.55;;
62894;SDS011;49204;44.916;37.998;2022-12-16T00:15:21;36.00;;;12.65;;
62894;SDS011;49204;44.916;37.998;2022-12-16T00:17:49;30.97;;;11.63;;
62894;SDS011;49204;44.916;37.998;2022-12-16T00:20:18;28.62;;;11.48;;
62894;SDS011;49204;44.916;37.998;2022-12-16T00:22:47;24.85;;;10.13;;
62894;SDS011;49204;44.916;37.998;2022-12-16T00:25:16;35.50;;;12.73;;
62894;SDS011;49204;44.916;37.998;2022-12-16T00:27:44;30.68;;;11.57;;
62894;SDS011;49204;44.916;37.998;2022-12-16T00:30:13;28.45;;;11.05;;
62894;SDS011;49204;44.916;37.998;2022-12-16T00:32:42;31.73;;;11.03;;
62894;SDS011;49204;44.916;37.998;2022-12-16T00:35:10;26.80;;;11.60;;
62894;SDS011;49204;44.916;37.998;2022-12-16T00:37:39;21.30;;;9.50;;
62894;SDS011;49204;44.916;37.998;2022-12-16T00:40:08;19.17;;;7.70;;
62894;SDS011;49204;44.916;37.998;2022-12-16T00:42:38;21.05;;;9.38;;
62894;SDS011;49204;44.916;37.998;2022-12-16T00:45:07;16.27;;;7.15;;
62894;SDS011;49204;44.916;37.998;2022-12-16T00:47:36;21.15;;;7.17;;
62894;SDS011;49204;44.916;37.998;2022-12-16T00:50:05;21.85;;;9.33;;
62894;SDS011;49204;44.916;37.998;2022-12-16T00:52:35;20.25;;;8.05;;
62894;SDS011;49204;44.916;37.998;2022-12-16T00:55:04;20.25;;;8.95;;
62894;SDS011;49204;44.916;37.998;2022-12-16T00:57:33;43.15;;;13.40;;
62894;SDS011;49204;44.916;37.998;2022-12-16T01:00:02;63.40;;;21.52;;
62894;SDS011;49204;44.916;37.998;2022-12-16T01:02:32;84.70;;;30.97;;
62894;SDS011;49204;44.916;37.998;2022-12-16T01:05:00;64.40;;;25.62;;
62894;SDS011;49204;44.916;37.998;2022-12-16T01:07:29;67.80;;;26.90;;
62894;SDS011;49204;44.916;37.998;2022-12-16T01:09:58;62.83;;;25.00;;
62894;SDS011;49204;44.916;37.998;2022-12-16T01:12:27;67.45;;;24.67;;
62894;SDS011;49204;44.916;37.998;2022-12-16T01:14:56;59.42;;;21.10;;
62894;SDS011;49204;44.916;37.998;2022-12-16T01:17:25;56.37;;;22.13;;
62894;SDS011;49204;44.916;37.998;2022-12-16T01:19:55;60.83;;;23.02;;
62894;SDS011;49204;44.916;37.998;2022-12-16T01:22:23;59.77;;;22.32;;
62894;SDS011;49204;44.916;37.998;2022-12-16T01:24:52;53.17;;;20.97;;
62894;SDS011;49204;44.916;37.998;2022-12-16T01:27:21;52.08;;;18.52;;
62894;SDS011;49204;44.916;37.998;2022-12-16T01:29:49;48.33;;;18.02;;
62894;SDS011;49204;44.916;37.998;2022-12-16T01:32:18;42.80;;;15.08;;
62894;SDS011;49204;44.916;37.998;2022-12-16T01:34:50;31.68;;;15.28;;
62894;SDS011;49204;44.916;37.998;2022-12-16T01:37:21;41.77;;;14.30;;
62894;SDS011;49204;44.916;37.998;2022-12-16T01:39:50;45.17;;;15.55;;
62894;SDS011;49204;44.916;37.998;2022-12-16T01:42:19;35.92;;;14.78;;
62894;SDS011;49204;44.916;37.998;2022-12-16T01:44:49;45.40;;;14.38;;
62894;SDS011;49204;44.916;37.998;2022-12-16T01:47:27;38.38;;;15.28;;
62894;SDS011;49204;44.916;37.998;2022-12-16T01:49:58;34.95;;;14.58;;
62894;SDS011;49204;44.916;37.998;2022-12-16T01:52:36;36.08;;;11.75;;
62894;SDS011;49204;44.916;37.998;2022-12-16T01:55:07;28.62;;;9.60;;
62894;SDS011;49204;44.916;37.998;2022-12-16T01:57:42;21.52;;;9.75;;
62894;SDS011;49204;44.916;37.998;2022-12-16T02:00:18;30.45;;;11.10;;
62894;SDS011;49204;44.916;37.998;2022-12-16T02:02:47;35.45;;;11.20;;
62894;SDS011;49204;44.916;37.998;2022-12-16T02:05:17;25.72;;;10.88;;
62894;SDS011;49204;44.916;37.998;2022-12-16T02:08:09;19.75;;;8.70;;
62894;SDS011;49204;44.916;37.998;2022-12-16T02:16:44;17.85;;;7.28;;
62894;SDS011;49204;44.916;37.998;2022-12-16T02:22:38;17.90;;;6.70;;
62894;SDS011;49204;44.916;37.998;2022-12-16T02:25:17;15.95;;;6.62;;
62894;SDS011;49204;44.916;37.998;2022-12-16T02:30:37;12.58;;;5.12;;
62894;SDS011;49204;44.916;37.998;2022-12-16T02:33:21;15.55;;;6.85;;
62894;SDS011;49204;44.916;37.998;2022-12-16T02:36:21;13.13;;;5.80;;
62894;SDS011;49204;44.916;37.998;2022-12-16T02:44:18;14.47;;;6.30;;
62894;SDS011;49204;44.916;37.998;2022-12-16T02:46:53;12.13;;;5.97;;
62894;SDS011;49204;44.916;37.998;2022-12-16T02:51:59;12.75;;;5.65;;
62894;SDS011;49204;44.916;37.998;2022-12-16T02:54:26;24.90;;;8.85;;
62894;SDS011;49204;44.916;37.998;2022-12-16T02:57:03;24.70;;;8.08;;
62894;SDS011;49204;44.916;37.998;2022-12-16T02:59:36;24.12;;;8.83;;
62894;SDS011;49204;44.916;37.998;2022-12-16T03:02:23;39.92;;;12.45;;
62894;SDS011;49204;44.916;37.998;2022-12-16T03:04:55;34.50;;;13.93;;
62894;SDS011;49204;44.916;37.998;2022-12-16T03:07:31;41.90;;;12.70;;
62894;SDS011;49204;44.916;37.998;2022-12-16T03:10:06;51.20;;;14.78;;
62894;SDS011;49204;44.916;37.998;2022-12-16T03:12:37;19.35;;;8.15;;
62894;SDS011;49204;44.916;37.998;2022-12-16T03:15:11;21.02;;;7.50;;
62894;SDS011;49204;44.916;37.998;2022-12-16T03:17:43;18.05;;;6.17;;
62894;SDS011;49204;44.916;37.998;2022-12-16T03:20:20;13.13;;;5.30;;
62894;SDS011;49204;44.916;37.998;2022-12-16T03:22:49;14.47;;;6.72;;
62894;SDS011;49204;44.916;37.998;2022-12-16T03:25:21;14.58;;;5.90;;
62894;SDS011;49204;44.916;37.998;2022-12-16T03:28:03;14.58;;;5.80;;
62894;SDS011;49204;44.916;37.998;2022-12-16T03:33:18;11.80;;;5.15;;
62894;SDS011;49204;44.916;37.998;2022-12-16T03:35:48;11.73;;;4.90;;
62894;SDS011;49204;44.916;37.998;2022-12-16T03:38:18;13.22;;;5.37;;
62894;SDS011;49204;44.916;37.998;2022-12-16T03:40:48;20.40;;;6.42;;
62894;SDS011;49204;44.916;37.998;2022-12-16T03:43:18;13.15;;;5.47;;
62894;SDS011;49204;44.916;37.998;2022-12-16T03:45:50;13.28;;;5.60;;
62894;SDS011;49204;44.916;37.998;2022-12-16T03:48:23;15.65;;;6.10;;
62894;SDS011;49204;44.916;37.998;2022-12-16T03:50:53;13.30;;;5.70;;
62894;SDS011;49204;44.916;37.998;2022-12-16T03:53:21;13.00;;;6.00;;
62894;SDS011;49204;44.916;37.998;2022-12-16T03:55:55;15.20;;;5.55;;
62894;SDS011;49204;44.916;37.998;2022-12-16T03:58:23;14.25;;;6.05;;
62894;SDS011;49204;44.916;37.998;2022-12-16T04:00:52;12.28;;;5.42;;
62894;SDS011;49204;44.916;37.998;2022-12-16T04:03:21;10.10;;;3.95;;
62894;SDS011;49204;44.916;37.998;2022-12-16T04:05:50;11.43;;;4.37;;
62894;SDS011;49204;44.916;37.998;2022-12-16T04:08:19;9.60;;;4.55;;
62894;SDS011;49204;44.916;37.998;2022-12-16T04:10:52;12.82;;;5.10;;
62894;SDS011;49204;44.916;37.998;2022-12-16T04:13:36;13.83;;;5.45;;
62894;SDS011;49204;44.916;37.998;2022-12-16T04:16:24;14.35;;;5.35;;
62894;SDS011;49204;44.916;37.998;2022-12-16T04:19:23;15.08;;;5.90;;
62894;SDS011;49204;44.916;37.998;2022-12-16T04:22:12;12.68;;;5.92;;
62894;SDS011;49204;44.916;37.998;2022-12-16T04:25:05;18.15;;;7.12;;
62894;SDS011;49204;44.916;37.998;2022-12-16T04:28:00;20.57;;;7.15;;
62894;SDS011;49204;44.916;37.998;2022-12-16T04:30:30;21.40;;;6.70;;
62894;SDS011;49204;44.916;37.998;2022-12-16T04:33:07;24.43;;;8.40;;
62894;SDS011;49204;44.916;37.998;2022-12-16T04:35:58;17.92;;;7.12;;
62894;SDS011;49204;44.916;37.998;2022-12-16T04:38:45;20.52;;;7.97;;
62894;SDS011;49204;44.916;37.998;2022-12-16T04:41:32;17.23;;;6.95;;
62894;SDS011;49204;44.916;37.998;2022-12-16T04:44:18;21.23;;;7.78;;
62894;SDS011;49204;44.916;37.998;2022-12-16T04:47:05;21.45;;;7.55;;
62894;SDS011;49204;44.916;37.998;2022-12-16T04:49:51;16.00;;;6.83;;
62894;SDS011;49204;44.916;37.998;2022-12-16T04:52:38;18.30;;;6.83;;
62894;SDS011;49204;44.916;37.998;2022-12-16T04:55:25;18.60;;;7.35;;
62894;SDS011;49204;44.916;37.998;2022-12-16T04:58:11;18.75;;;7.62;;
62894;SDS011;49204;44.916;37.998;2022-12-16T05:00:58;18.98;;;7.50;;
62894;SDS011;49204;44.916;37.998;2022-12-16T05:03:45;16.27;;;7.08;;
62894;SDS011;49204;44.916;37.998;2022-12-16T05:06:31;16.70;;;7.20;;
62894;SDS011;49204;44.916;37.998;2022-12-16T05:09:17;18.73;;;7.80;;
62894;SDS011;49204;44.916;37.998;2022-12-16T05:12:04;18.40;;;7.83;;
62894;SDS011;49204;44.916;37.998;2022-12-16T05:14:51;24.02;;;8.80;;
62894;SDS011;49204;44.916;37.998;2022-12-16T05:17:38;21.75;;;9.03;;
62894;SDS011;49204;44.916;37.998;2022-12-16T05:20:25;24.12;;;8.80;;
62894;SDS011;49204;44.916;37.998;2022-12-16T05:23:12;35.95;;;11.18;;
62894;SDS011;49204;44.916;37.998;2022-12-16T05:25:59;32.75;;;12.33;;
62894;SDS011;49204;44.916;37.998;2022-12-16T05:28:45;24.07;;;9.38;;
62894;SDS011;49204;44.916;37.998;2022-12-16T05:31:32;31.77;;;10.85;;
62894;SDS011;49204;44.916;37.998;2022-12-16T05:34:18;32.48;;;10.88;;
62894;SDS011;49204;44.916;37.998;2022-12-16T05:37:05;32.70;;;11.33;;
62894;SDS011;49204;44.916;37.998;2022-12-16T05:39:52;34.58;;;12.23;;
62894;SDS011;49204;44.916;37.998;2022-12-16T05:42:38;24.95;;;9.65;;
62894;SDS011;49204;44.916;37.998;2022-12-16T05:45:25;23.45;;;8.55;;
62894;SDS011;49204;44.916;37.998;2022-12-16T05:48:11;20.60;;;8.20;;
62894;SDS011;49204;44.916;37.998;2022-12-16T05:50:58;19.25;;;8.40;;
62894;SDS011;49204;44.916;37.998;2022-12-16T05:53:45;23.80;;;9.15;;
62894;SDS011;49204;44.916;37.998;2022-12-16T05:56:25;29.98;;;10.35;;
62894;SDS011;49204;44.916;37.998;2022-12-16T05:59:11;25.68;;;11.05;;
62894;SDS011;49204;44.916;37.998;2022-12-16T06:01:58;30.48;;;11.05;;
62894;SDS011;49204;44.916;37.998;2022-12-16T06:04:45;47.85;;;15.05;;
62894;SDS011;49204;44.916;37.998;2022-12-16T06:07:32;36.48;;;13.68;;
62894;SDS011;49204;44.916;37.998;2022-12-16T06:10:18;36.33;;;12.93;;
62894;SDS011;49204;44.916;37.998;2022-12-16T06:13:05;27.73;;;11.63;;
62894;SDS011;49204;44.916;37.998;2022-12-16T06:15:52;26.45;;;12.37;;
62894;SDS011;49204;44.916;37.998;2022-12-16T06:18:39;18.07;;;8.03;;
62894;SDS011;49204;44.916;37.998;2022-12-16T06:21:26;14.15;;;7.03;;
62894;SDS011;49204;44.916;37.998;2022-12-16T06:24:13;12.18;;;6.15;;
62894;SDS011;49204;44.916;37.998;2022-12-16T06:27:00;11.95;;;6.22;;
62894;SDS011;49204;44.916;37.998;2022-12-16T06:29:46;12.33;;;6.35;;
62894;SDS011;49204;44.916;37.998;2022-12-16T06:32:33;9.58;;;5.20;;
62894;SDS011;49204;44.916;37.998;2022-12-16T06:35:20;20.08;;;9.43;;
62894;SDS011;49204;44.916;37.998;2022-12-16T06:38:06;22.05;;;9.78;;
62894;SDS011;49204;44.916;37.998;2022-12-16T06:40:53;11.50;;;6.70;;
62894;SDS011;49204;44.916;37.998;2022-12-16T06:43:40;12.47;;;6.33;;
62894;SDS011;49204;44.916;37.998;2022-12-16T06:46:26;10.75;;;5.62;;
62894;SDS011;49204;44.916;37.998;2022-12-16T06:49:13;14.45;;;5.70;;
62894;SDS011;49204;44.916;37.998;2022-12-16T06:51:59;13.85;;;5.78;;
62894;SDS011;49204;44.916;37.998;2022-12-16T06:54:45;12.18;;;5.33;;
62894;SDS011;49204;44.916;37.998;2022-12-16T06:57:32;11.48;;;5.10;;
62894;SDS011;49204;44.916;37.998;2022-12-16T07:00:18;9.60;;;4.78;;
62894;SDS011;49204;44.916;37.998;2022-12-16T07:03:05;8.58;;;4.00;;
62894;SDS011;49204;44.916;37.998;2022-12-16T07:05:52;6.92;;;3.40;;
62894;SDS011;49204;44.916;37.998;2022-12-16T07:08:39;6.17;;;3.37;;
62894;SDS011;49204;44.916;37.998;2022-12-16T07:11:26;9.53;;;3.77;;
62894;SDS011;49204;44.916;37.998;2022-12-16T07:14:13;8.43;;;3.60;;
62894;SDS011;49204;44.916;37.998;2022-12-16T07:17:00;8.75;;;3.58;;
62894;SDS011;49204;44.916;37.998;2022-12-16T07:19:46;9.75;;;3.42;;
62894;SDS011;49204;44.916;37.998;2022-12-16T07:22:26;5.62;;;3.15;;
62894;SDS011;49204;44.916;37.998;2022-12-16T07:25:12;5.03;;;3.15;;
62894;SDS011;49204;44.916;37.998;2022-12-16T07:27:59;6.15;;;3.10;;
62894;SDS011;49204;44.916;37.998;2022-12-16T07:30:45;5.42;;;3.27;;
62894;SDS011;49204;44.916;37.998;2022-12-16T07:33:31;5.80;;;3.10;;
62894;SDS011;49204;44.916;37.998;2022-12-16T07:36:18;3.47;;;2.10;;
62894;SDS011;49204;44.916;37.998;2022-12-16T07:39:04;7.05;;;3.45;;
62894;SDS011;49204;44.916;37.998;2022-12-16T07:41:50;6.85;;;3.47;;
62894;SDS011;49204;44.916;37.998;2022-12-16T07:44:37;6.05;;;2.40;;
62894;SDS011;49204;44.916;37.998;2022-12-16T07:47:23;5.55;;;2.58;;
62894;SDS011;49204;44.916;37.998;2022-12-16T07:50:10;5.60;;;3.25;;
62894;SDS011;49204;44.916;37.998;2022-12-16T07:52:57;6.42;;;2.75;;
62894;SDS011;49204;44.916;37.998;2022-12-16T07:55:44;6.10;;;2.55;;
62894;SDS011;49204;44.916;37.998;2022-12-16T07:58:31;5.47;;;2.42;;
62894;SDS011;49204;44.916;37.998;2022-12-16T08:01:18;5.42;;;2.90;;
62894;SDS011;49204;44.916;37.998;2022-12-16T08:04:04;8.65;;;3.50;;
62894;SDS011;49204;44.916;37.998;2022-12-16T08:06:50;6.25;;;3.02;;
62894;SDS011;49204;44.916;37.998;2022-12-16T08:09:37;6.28;;;3.60;;
62894;SDS011;49204;44.916;37.998;2022-12-16T08:12:23;7.58;;;3.77;;
62894;SDS011;49204;44.916;37.998;2022-12-16T08:15:10;5.40;;;3.40;;
62894;SDS011;49204;44.916;37.998;2022-12-16T08:17:56;7.37;;;4.28;;
62894;SDS011;49204;44.916;37.998;2022-12-16T08:20:43;9.58;;;3.65;;
62894;SDS011;49204;44.916;37.998;2022-12-16T08:23:29;8.48;;;3.80;;
62894;SDS011;49204;44.916;37.998;2022-12-16T08:26:16;8.30;;;3.37;;
62894;SDS011;49204;44.916;37.998;2022-12-16T08:29:02;6.50;;;3.02;;
62894;SDS011;49204;44.916;37.998;2022-12-16T08:31:49;8.65;;;3.67;;
62894;SDS011;49204;44.916;37.998;2022-12-16T08:34:35;7.47;;;3.77;;
62894;SDS011;49204;44.916;37.998;2022-12-16T08:37:21;14.10;;;5.08;;
62894;SDS011;49204;44.916;37.998;2022-12-16T08:40:08;13.68;;;5.20;;
62894;SDS011;49204;44.916;37.998;2022-12-16T08:42:56;18.02;;;5.92;;
62894;SDS011;49204;44.916;37.998;2022-12-16T08:45:43;18.92;;;6.85;;
62894;SDS011;49204;44.916;37.998;2022-12-16T08:48:29;21.10;;;7.37;;
62894;SDS011;49204;44.916;37.998;2022-12-16T08:51:15;18.37;;;7.45;;
62894;SDS011;49204;44.916;37.998;2022-12-16T08:54:02;16.85;;;6.60;;
62894;SDS011;49204;44.916;37.998;2022-12-16T08:56:49;21.48;;;7.20;;
62894;SDS011;49204;44.916;37.998;2022-12-16T08:59:35;17.55;;;7.75;;
62894;SDS011;49204;44.916;37.998;2022-12-16T09:02:22;21.80;;;8.18;;
62894;SDS011;49204;44.916;37.998;2022-12-16T09:05:08;17.92;;;6.92;;
62894;SDS011;49204;44.916;37.998;2022-12-16T09:07:58;21.37;;;6.70;;
62894;SDS011;49204;44.916;37.998;2022-12-16T09:10:48;20.08;;;7.03;;
62894;SDS011;49204;44.916;37.998;2022-12-16T09:13:34;18.23;;;6.67;;
62894;SDS011;49204;44.916;37.998;2022-12-16T09:16:21;17.20;;;6.05;;
62894;SDS011;49204;44.916;37.998;2022-12-16T09:19:08;18.42;;;6.67;;
62894;SDS011;49204;44.916;37.998;2022-12-16T09:21:55;20.75;;;6.65;;
62894;SDS011;49204;44.916;37.998;2022-12-16T09:24:41;17.50;;;6.22;;
62894;SDS011;49204;44.916;37.998;2022-12-16T09:27:28;15.35;;;5.80;;
62894;SDS011;49204;44.916;37.998;2022-12-16T09:30:15;17.52;;;5.53;;
62894;SDS011;49204;44.916;37.998;2022-12-16T09:33:02;14.63;;;6.65;;
62894;SDS011;49204;44.916;37.998;2022-12-16T09:35:50;16.65;;;6.62;;
62894;SDS011;49204;44.916;37.998;2022-12-16T09:38:36;16.67;;;6.62;;
62894;SDS011;49204;44.916;37.998;2022-12-16T09:41:29;14.90;;;6.28;;
62894;SDS011;49204;44.916;37.998;2022-12-16T09:44:41;17.82;;;5.80;;
62894;SDS011;49204;44.916;37.998;2022-12-16T09:50:21;16.75;;;6.67;;
62894;SDS011;49204;44.916;37.998;2022-12-16T09:53:16;16.77;;;6.35;;
62894;SDS011;49204;44.916;37.998;2022-12-16T09:56:01;15.80;;;6.58;;
62894;SDS011;49204;44.916;37.998;2022-12-16T09:58:52;14.30;;;5.35;;
62894;SDS011;49204;44.916;37.998;2022-12-16T10:01:39;12.30;;;5.75;;
62894;SDS011;49204;44.916;37.998;2022-12-16T10:04:27;13.85;;;6.55;;
62894;SDS011;49204;44.916;37.998;2022-12-16T10:07:19;13.50;;;5.50;;
62894;SDS011;49204;44.916;37.998;2022-12-16T10:10:11;10.82;;;5.42;;
62894;SDS011;49204;44.916;37.998;2022-12-16T10:13:16;11.93;;;5.40;;
62894;SDS011;49204;44.916;37.998;2022-12-16T10:16:07;12.10;;;4.65;;
62894;SDS011;49204;44.916;37.998;2022-12-16T10:25:19;9.63;;;4.78;;
62894;SDS011;49204;44.916;37.998;2022-12-16T10:28:18;11.22;;;5.37;;
62894;SDS011;49204;44.916;37.998;2022-12-16T10:31:16;9.83;;;4.62;;
62894;SDS011;49204;44.916;37.998;2022-12-16T10:34:04;11.03;;;4.78;;
62894;SDS011;49204;44.916;37.998;2022-12-16T10:36:52;6.80;;;3.52;;
62894;SDS011;49204;44.916;37.998;2022-12-16T10:39:40;9.50;;;3.65;;
62894;SDS011;49204;44.916;37.998;2022-12-16T10:42:32;9.08;;;4.10;;
62894;SDS011;49204;44.916;37.998;2022-12-16T10:45:39;10.50;;;4.30;;
62894;SDS011;49204;44.916;37.998;2022-12-16T10:48:29;6.35;;;3.87;;
62894;SDS011;49204;44.916;37.998;2022-12-16T10:51:17;6.15;;;3.00;;
62894;SDS011;49204;44.916;37.998;2022-12-16T11:00:42;8.78;;;4.40;;
62894;SDS011;49204;44.916;37.998;2022-12-16T11:03:30;10.43;;;4.67;;
62894;SDS011;49204;44.916;37.998;2022-12-16T11:06:24;10.82;;;4.85;;
62894;SDS011;49204;44.916;37.998;2022-12-16T11:09:21;11.05;;;4.15;;
62894;SDS011;49204;44.916;37.998;2022-12-16T11:12:26;19.90;;;8.23;;
62894;SDS011;49204;44.916;37.998;2022-12-16T11:18:16;9.53;;;4.90;;
62894;SDS011;49204;44.916;37.998;2022-12-16T11:24:06;10.72;;;4.95;;
62894;SDS011;49204;44.916;37.998;2022-12-16T11:26:59;8.73;;;4.12;;
62894;SDS011;49204;44.916;37.998;2022-12-16T11:29:51;13.68;;;4.90;;
62894;SDS011;49204;44.916;37.998;2022-12-16T11:32:41;13.05;;;4.83;;
62894;SDS011;49204;44.916;37.998;2022-12-16T11:35:36;8.50;;;4.47;;
62894;SDS011;49204;44.916;37.998;2022-12-16T11:38:32;14.50;;;5.60;;
62894;SDS011;49204;44.916;37.998;2022-12-16T11:41:20;8.58;;;4.33;;
62894;SDS011;49204;44.916;37.998;2022-12-16T11:44:15;20.37;;;6.85;;
62894;SDS011;49204;44.916;37.998;2022-12-16T11:46:59;21.20;;;8.63;;
62894;SDS011;49204;44.916;37.998;2022-12-16T11:49:46;16.02;;;6.55;;
62894;SDS011;49204;44.916;37.998;2022-12-16T11:52:34;14.47;;;5.08;;
62894;SDS011;49204;44.916;37.998;2022-12-16T11:55:25;10.80;;;4.10;;
62894;SDS011;49204;44.916;37.998;2022-12-16T11:58:15;18.27;;;6.15;;
62894;SDS011;49204;44.916;37.998;2022-12-16T12:01:10;10.10;;;4.30;;
62894;SDS011;49204;44.916;37.998;2022-12-16T12:09:42;9.38;;;3.77;;
62894;SDS011;49204;44.916;37.998;2022-12-16T12:12:37;6.87;;;3.20;;
62894;SDS011;49204;44.916;37.998;2022-12-16T12:15:41;9.48;;;3.25;;
62894;SDS011;49204;44.916;37.998;2022-12-16T12:19:33;10.13;;;4.33;;
62894;SDS011;49204;44.916;37.998;2022-12-16T12:24:38;13.28;;;5.83;;
62894;SDS011;49204;44.916;37.998;2022-12-16T12:27:37;10.95;;;5.00;;
62894;SDS011;49204;44.916;37.998;2022-12-16T12:30:25;12.82;;;4.72;;
62894;SDS011;49204;44.916;37.998;2022-12-16T12:33:34;10.30;;;4.22;;
62894;SDS011;49204;44.916;37.998;2022-12-16T12:36:28;11.20;;;4.08;;
62894;SDS011;49204;44.916;37.998;2022-12-16T12:39:21;10.20;;;3.98;;
62894;SDS011;49204;44.916;37.998;2022-12-16T12:42:16;10.85;;;4.03;;
62894;SDS011;49204;44.916;37.998;2022-12-16T12:51:07;14.68;;;4.33;;
62894;SDS011;49204;44.916;37.998;2022-12-16T12:57:07;14.00;;;5.47;;
62894;SDS011;49204;44.916;37.998;2022-12-16T13:00:03;18.40;;;7.28;;
62894;SDS011;49204;44.916;37.998;2022-12-16T13:02:59;16.73;;;6.20;;
62894;SDS011;49204;44.916;37.998;2022-12-16T13:05:56;15.72;;;5.83;;
62894;SDS011;49204;44.916;37.998;2022-12-16T13:11:36;20.85;;;7.00;;
62894;SDS011;49204;44.916;37.998;2022-12-16T13:17:20;23.20;;;7.78;;
62894;SDS011;49204;44.916;37.998;2022-12-16T13:23:33;33.00;;;7.53;;
62894;SDS011;49204;44.916;37.998;2022-12-16T13:26:25;22.52;;;7.37;;
62894;SDS011;49204;44.916;37.998;2022-12-16T13:29:21;28.17;;;8.88;;
62894;SDS011;49204;44.916;37.998;2022-12-16T13:37:57;28.92;;;8.40;;
62894;SDS011;49204;44.916;37.998;2022-12-16T13:46:46;27.67;;;8.05;;
62894;SDS011;49204;44.916;37.998;2022-12-16T13:52:35;34.35;;;8.75;;
62894;SDS011;49204;44.916;37.998;2022-12-16T13:55:43;28.70;;;8.05;;
62894;SDS011;49204;44.916;37.998;2022-12-16T13:58:53;23.77;;;7.25;;
62894;SDS011;49204;44.916;37.998;2022-12-16T14:04:34;17.57;;;5.53;;
62894;SDS011;49204;44.916;37.998;2022-12-16T14:07:34;42.20;;;7.80;;
62894;SDS011;49204;44.916;37.998;2022-12-16T14:10:23;25.85;;;6.45;;
62894;SDS011;49204;44.916;37.998;2022-12-16T14:13:15;36.13;;;8.58;;
62894;SDS011;49204;44.916;37.998;2022-12-16T14:22:03;35.60;;;6.10;;
62894;SDS011;49204;44.916;37.998;2022-12-16T14:24:48;26.85;;;5.62;;
62894;SDS011;49204;44.916;37.998;2022-12-16T14:27:35;40.55;;;7.03;;
62894;SDS011;49204;44.916;37.998;2022-12-16T14:30:23;27.50;;;6.47;;
62894;SDS011;49204;44.916;37.998;2022-12-16T14:33:16;46.23;;;7.33;;
62894;SDS011;49204;44.916;37.998;2022-12-16T14:36:26;21.07;;;6.92;;
62894;SDS011;49204;44.916;37.998;2022-12-16T14:39:19;31.40;;;7.55;;
62894;SDS011;49204;44.916;37.998;2022-12-16T14:48:22;24.92;;;6.97;;
62894;SDS011;49204;44.916;37.998;2022-12-16T14:51:14;38.67;;;7.10;;
62894;SDS011;49204;44.916;37.998;2022-12-16T14:57:18;33.55;;;6.62;;
62894;SDS011;49204;44.916;37.998;2022-12-16T15:00:22;24.63;;;7.15;;
62894;SDS011;49204;44.916;37.998;2022-12-16T15:02:51;36.28;;;8.05;;
62894;SDS011;49204;44.916;37.998;2022-12-16T15:05:49;30.25;;;7.03;;
62894;SDS011;49204;44.916;37.998;2022-12-16T15:08:46;22.93;;;7.33;;
62894;SDS011;49204;44.916;37.998;2022-12-16T15:11:25;71.50;;;8.03;;
62894;SDS011;49204;44.916;37.998;2022-12-16T15:14:13;21.20;;;6.83;;
62894;SDS011;49204;44.916;37.998;2022-12-16T15:17:02;45.50;;;8.78;;
62894;SDS011;49204;44.916;37.998;2022-12-16T15:19:49;32.00;;;6.97;;
62894;SDS011;49204;44.916;37.998;2022-12-16T15:22:47;34.13;;;11.40;;
62894;SDS011;49204;44.916;37.998;2022-12-16T15:25:26;40.00;;;13.58;;
62894;SDS011;49204;44.916;37.998;2022-12-16T15:28:24;61.33;;;21.20;;
62894;SDS011;49204;44.916;37.998;2022-12-16T15:31:12;47.53;;;13.20;;
62894;SDS011;49204;44.916;37.998;2022-12-16T15:34:15;50.10;;;8.55;;
62894;SDS011;49204;44.916;37.998;2022-12-16T15:37:02;69.77;;;9.18;;
62894;SDS011;49204;44.916;37.998;2022-12-16T15:39:50;28.38;;;5.85;;
62894;SDS011;49204;44.916;37.998;2022-12-16T15:42:37;55.48;;;8.03;;
62894;SDS011;49204;44.916;37.998;2022-12-16T15:45:30;33.05;;;8.15;;
62894;SDS011;49204;44.916;37.998;2022-12-16T15:48:18;100.60;;;10.88;;
62894;SDS011;49204;44.916;37.998;2022-12-16T15:54:17;44.48;;;10.13;;
62894;SDS011;49204;44.916;37.998;2022-12-16T15:57:01;42.35;;;10.72;;
62894;SDS011;49204;44.916;37.998;2022-12-16T15:59:56;77.85;;;11.88;;
62894;SDS011;49204;44.916;37.998;2022-12-16T16:02:48;28.38;;;9.08;;
62894;SDS011;49204;44.916;37.998;2022-12-16T16:05:32;25.88;;;8.80;;
62894;SDS011;49204;44.916;37.998;2022-12-16T16:08:21;56.95;;;10.55;;
62894;SDS011;49204;44.916;37.998;2022-12-16T16:11:08;115.72;;;12.53;;
62894;SDS011;49204;44.916;37.998;2022-12-16T16:13:54;64.15;;;10.50;;
62894;SDS011;49204;44.916;37.998;2022-12-16T16:16:41;85.70;;;11.65;;
62894;SDS011;49204;44.916;37.998;2022-12-16T16:19:27;99.97;;;13.08;;
62894;SDS011;49204;44.916;37.998;2022-12-16T16:22:15;39.70;;;9.73;;
62894;SDS011;49204;44.916;37.998;2022-12-16T16:25:02;30.68;;;9.98;;
62894;SDS011;49204;44.916;37.998;2022-12-16T16:27:50;33.65;;;10.00;;
62894;SDS011;49204;44.916;37.998;2022-12-16T16:30:37;42.93;;;9.83;;
62894;SDS011;49204;44.916;37.998;2022-12-16T16:33:26;80.67;;;11.55;;
62894;SDS011;49204;44.916;37.998;2022-12-16T16:36:13;74.03;;;10.08;;
62894;SDS011;49204;44.916;37.998;2022-12-16T16:39:01;86.82;;;10.30;;
62894;SDS011;49204;44.916;37.998;2022-12-16T16:41:48;49.33;;;9.23;;
62894;SDS011;49204;44.916;37.998;2022-12-16T16:44:35;67.85;;;10.78;;
62894;SDS011;49204;44.916;37.998;2022-12-16T16:47:22;41.77;;;9.23;;
62894;SDS011;49204;44.916;37.998;2022-12-16T16:50:12;75.72;;;12.65;;
62894;SDS011;49204;44.916;37.998;2022-12-16T16:52:59;62.93;;;11.15;;
62894;SDS011;49204;44.916;37.998;2022-12-16T16:55:46;29.18;;;8.63;;
62894;SDS011;49204;44.916;37.998;2022-12-16T16:58:33;53.30;;;13.18;;
62894;SDS011;49204;44.916;37.998;2022-12-16T17:01:20;73.70;;;14.05;;
62894;SDS011;49204;44.916;37.998;2022-12-16T17:04:07;102.87;;;13.18;;
62894;SDS011;49204;44.916;37.998;2022-12-16T17:06:54;41.60;;;8.48;;
62894;SDS011;49204;44.916;37.998;2022-12-16T17:09:40;96.50;;;10.18;;
62894;SDS011;49204;44.916;37.998;2022-12-16T17:12:28;103.70;;;9.55;;
62894;SDS011;49204;44.916;37.998;2022-12-16T17:15:23;25.32;;;9.03;;
62894;SDS011;49204;44.916;37.998;2022-12-16T17:18:11;73.95;;;9.63;;
62894;SDS011;49204;44.916;37.998;2022-12-16T17:20:57;26.23;;;8.60;;
62894;SDS011;49204;44.916;37.998;2022-12-16T17:23:44;32.65;;;6.67;;
62894;SDS011;49204;44.916;37.998;2022-12-16T17:26:31;43.30;;;9.85;;
62894;SDS011;49204;44.916;37.998;2022-12-16T17:29:19;43.40;;;9.23;;
62894;SDS011;49204;44.916;37.998;2022-12-16T17:32:08;35.60;;;8.98;;
62894;SDS011;49204;44.916;37.998;2022-12-16T17:34:55;20.15;;;8.08;;
62894;SDS011;49204;44.916;37.998;2022-12-16T17:37:42;47.60;;;12.07;;
62894;SDS011;49204;44.916;37.998;2022-12-16T17:40:29;76.17;;;15.10;;
62894;SDS011;49204;44.916;37.998;2022-12-16T17:43:15;74.03;;;11.68;;
62894;SDS011;49204;44.916;37.998;2022-12-16T17:46:03;30.00;;;8.05;;
62894;SDS011;49204;44.916;37.998;2022-12-16T17:48:52;50.23;;;9.40;;